This is the latest recevied weather packets stored in our database for station/object EA1GGY-1. If no packets are shown the sender has not sent any weather packets the latest 1 day(s).
| Time | Temp. | Humidity | Pressure | Rain* | Wind** | Luminosity | Snow |
|---|---|---|---|---|---|---|---|
| 1778096392 | 10.56° C | 72% | 1007.3 hPa | - | - | - | - |
| 1778093988 | 12.22° C | 64% | 1007 hPa | - | - | - | - |
| 1778091585 | 12.22° C | 64% | 1006.9 hPa | - | - | - | - |
| 1778090989 | 12.22° C | 64% | 1006.9 hPa | - | - | - | - |
| 1778090383 | 12.22° C | 64% | 1006.9 hPa | - | - | - | - |
| 1778088581 | 12.22° C | 64% | 1007.1 hPa | - | - | - | - |
| 1778087980 | 12.22° C | 67% | 1007.2 hPa | - | - | - | - |
| 1778085577 | 12.78° C | 61% | 1007 hPa | - | - | - | - |
| 1778081972 | 12.22° C | 60% | 1007.3 hPa | - | - | - | - |
| 1778078367 | 11.67° C | 69% | 1008.2 hPa | - | - | - | - |
| 1778077766 | 11.67° C | 66% | 1008.4 hPa | - | - | - | - |
| 1778077167 | 10.56° C | 73% | 1008.5 hPa | - | - | - | - |
| 1778074762 | 13.33° C | 54% | 1008.2 hPa | - | - | - | - |
| 1778073560 | 13.89° C | 54% | 1008.2 hPa | - | - | - | - |
| 1778071758 | 12.22° C | 55% | 1008.4 hPa | - | - | - | - |
| 1778066953 | 12.78° C | 54% | 1008.7 hPa | - | - | - | - |
| 1778066350 | 12.78° C | 54% | 1008.7 hPa | - | - | - | - |
| 1778065749 | 13.33° C | 53% | 1008.7 hPa | - | - | - | - |
| 1778063947 | 15° C | 52% | 1008.8 hPa | - | - | - | - |
| 1778062745 | 11.67° C | 54% | 1008.9 hPa | - | - | - | - |
| 1778061544 | 11.67° C | 56% | 1008.9 hPa | - | - | - | - |
| 1778060943 | 10° C | 58% | 1009 hPa | - | - | - | - |
| 1778060342 | 10.56° C | 60% | 1009.1 hPa | - | - | - | - |
| 1778057939 | 8.89° C | 62% | 1009 hPa | - | - | - | - |
| 1778055537 | 8.33° C | 65% | 1009 hPa | - | - | - | - |
* Rain since midnight (hover to see other rain measurements)
** Current wind speed in m/s (hover to see current wind gust speed)